createdAt,value
2022-12-24T00:02:38.079Z,100.00
2022-12-24T00:12:40.902Z,100.00
2022-12-24T00:22:42.682Z,100.00
2022-12-24T00:32:44.400Z,100.00
2022-12-24T00:42:46.162Z,100.00
2022-12-24T00:52:48.022Z,100.00
2022-12-24T01:02:52.583Z,100.00
2022-12-24T01:12:56.526Z,100.00
2022-12-24T01:22:58.173Z,100.00
2022-12-24T01:32:59.808Z,100.00
2022-12-24T01:43:21.608Z,100.00
2022-12-24T01:53:24.617Z,100.00
2022-12-24T02:03:27.486Z,100.00
2022-12-24T02:13:29.224Z,100.00
2022-12-24T02:23:55.947Z,100.00
2022-12-24T02:34:13.046Z,100.00
2022-12-24T02:44:26.287Z,100.00
2022-12-24T02:54:28.549Z,100.00
2022-12-24T03:04:50.124Z,100.00
2022-12-24T03:15:01.306Z,100.00
2022-12-24T03:25:04.705Z,100.00
2022-12-24T03:35:08.999Z,100.00
2022-12-24T03:45:11.578Z,100.00
2022-12-24T03:55:13.531Z,100.00
2022-12-24T04:05:18.237Z,100.00
2022-12-24T04:15:22.215Z,100.00
2022-12-24T04:25:23.935Z,100.00
2022-12-24T04:35:38.941Z,100.00
2022-12-24T04:45:41.582Z,100.00
2022-12-24T04:55:47.376Z,100.00
2022-12-24T05:05:49.346Z,100.00
2022-12-24T05:15:52.225Z,100.00
2022-12-24T05:26:14.530Z,100.00
2022-12-24T05:36:21.349Z,100.00
2022-12-24T05:46:25.031Z,100.00
2022-12-24T05:56:27.278Z,100.00
2022-12-24T06:06:29.123Z,100.00
2022-12-24T06:16:31.170Z,100.00
2022-12-24T06:26:34.230Z,100.00
2022-12-24T06:36:38.244Z,100.00
2022-12-24T06:46:40.038Z,100.00
2022-12-24T06:56:45.950Z,100.00
2022-12-24T07:06:47.863Z,100.00
2022-12-24T07:16:55.293Z,100.00
2022-12-24T07:27:01.515Z,100.00
2022-12-24T07:37:03.371Z,100.00
2022-12-24T07:47:11.207Z,100.00
2022-12-24T07:57:16.238Z,100.00
2022-12-24T08:07:17.873Z,100.00
2022-12-24T08:17:20.629Z,100.00
2022-12-24T08:27:34.471Z,100.00
2022-12-24T08:37:37.080Z,100.00
2022-12-24T08:47:39.427Z,100.00
2022-12-24T08:57:46.188Z,100.00
2022-12-24T09:07:49.321Z,100.00
2022-12-24T09:17:53.639Z,100.00
2022-12-24T09:27:56.405Z,100.00
2022-12-24T09:38:04.066Z,100.00
2022-12-24T09:48:17.305Z,100.00
2022-12-24T09:58:29.864Z,100.00
2022-12-24T10:08:50.150Z,100.00
2022-12-24T10:19:43.289Z,100.00
2022-12-24T10:30:02.256Z,100.00
2022-12-24T10:40:06.288Z,100.00
2022-12-24T10:50:18.707Z,100.00
2022-12-24T11:00:29.954Z,100.00
2022-12-24T11:10:41.164Z,100.00
2022-12-24T11:20:52.318Z,100.00
2022-12-24T11:31:06.545Z,92.92
2022-12-24T11:41:12.011Z,81.66
2022-12-24T11:51:25.874Z,76.49
2022-12-24T12:01:33.458Z,79.83
2022-12-24T12:11:40.347Z,74.81
2022-12-24T12:21:46.791Z,75.22
2022-12-24T12:31:52.958Z,72.83
2022-12-24T12:42:40.314Z,71.34
2022-12-24T12:53:13.490Z,73.85
2022-12-24T13:03:24.207Z,76.23
2022-12-24T13:13:40.186Z,78.58
2022-12-24T13:23:42.022Z,75.98
2022-12-24T13:33:43.713Z,76.42
2022-12-24T13:44:08.992Z,77.67
2022-12-24T13:54:15.137Z,85.57
2022-12-24T14:04:29.060Z,77.44
2022-12-24T14:14:32.957Z,89.02
2022-12-24T14:24:43.742Z,89.13
2022-12-24T14:35:14.239Z,99.25
2022-12-24T14:45:33.968Z,100.00
2022-12-24T14:55:50.309Z,100.00
2022-12-24T15:06:05.566Z,100.00
2022-12-24T15:16:14.917Z,100.00
2022-12-24T15:26:32.800Z,100.00
2022-12-24T15:36:38.162Z,100.00
2022-12-24T15:46:44.410Z,100.00
2022-12-24T15:56:50.460Z,100.00
2022-12-24T16:06:53.567Z,100.00
2022-12-24T16:16:56.763Z,100.00
2022-12-24T16:26:58.508Z,100.00
2022-12-24T16:37:01.538Z,100.00
2022-12-24T16:47:07.775Z,100.00
2022-12-24T16:57:30.311Z,100.00
2022-12-24T17:07:32.336Z,100.00
2022-12-24T17:17:49.697Z,100.00
2022-12-24T17:27:51.404Z,100.00
2022-12-24T17:37:53.786Z,100.00
2022-12-24T17:47:55.476Z,100.00
2022-12-24T17:57:57.161Z,100.00
2022-12-24T18:08:00.002Z,100.00
2022-12-24T18:18:05.348Z,100.00
2022-12-24T18:28:07.183Z,100.00
2022-12-24T18:38:11.420Z,100.00
2022-12-24T18:48:15.546Z,100.00
2022-12-24T18:58:17.675Z,100.00
2022-12-24T19:08:56.088Z,100.00
2022-12-24T19:18:45.693Z,100.00
2022-12-24T19:28:47.942Z,100.00
2022-12-24T19:38:51.219Z,100.00
2022-12-24T19:48:56.474Z,100.00
2022-12-24T19:58:59.887Z,100.00
2022-12-24T20:09:05.018Z,100.00
2022-12-24T20:19:07.770Z,100.00
2022-12-24T20:29:12.981Z,100.00
2022-12-24T20:39:17.104Z,100.00
2022-12-24T20:49:18.826Z,100.00
2022-12-24T20:59:21.517Z,100.00
2022-12-24T21:09:23.384Z,100.00
2022-12-24T21:19:25.827Z,100.00
2022-12-24T21:29:29.800Z,100.00
2022-12-24T21:39:31.673Z,100.00
2022-12-24T21:49:56.112Z,100.00
2022-12-24T22:00:19.589Z,100.00
2022-12-24T22:10:51.618Z,100.00
2022-12-24T22:20:55.003Z,100.00
2022-12-24T22:31:00.752Z,100.00
2022-12-24T22:41:08.422Z,100.00
2022-12-24T22:51:18.659Z,100.00
2022-12-24T23:01:30.675Z,100.00
2022-12-24T23:11:32.684Z,100.00
2022-12-24T23:21:36.846Z,100.00
2022-12-24T23:31:39.896Z,100.00
2022-12-24T23:41:42.737Z,100.00
2022-12-24T23:51:44.601Z,100.00
